sensor_id;sensor_type;location;lat;lon;timestamp;pressure;altitude;pressure_sealevel;temperature;humidity
55490;BME280;44029;52.956;4.772;2022-12-07T00:02:12;101929.63;;;7.08;100.00
55490;BME280;44029;52.956;4.772;2022-12-07T00:04:37;101932.84;;;7.19;100.00
55490;BME280;44029;52.956;4.772;2022-12-07T00:07:03;101929.44;;;7.10;100.00
55490;BME280;44029;52.956;4.772;2022-12-07T00:09:29;101938.66;;;7.09;100.00
55490;BME280;44029;52.956;4.772;2022-12-07T00:11:54;101914.28;;;7.01;100.00
55490;BME280;44029;52.956;4.772;2022-12-07T00:14:20;101919.78;;;7.07;100.00
55490;BME280;44029;52.956;4.772;2022-12-07T00:16:45;101918.59;;;7.23;100.00
55490;BME280;44029;52.956;4.772;2022-12-07T00:19:14;101923.91;;;7.31;100.00
55490;BME280;44029;52.956;4.772;2022-12-07T00:21:39;101922.19;;;7.30;100.00
55490;BME280;44029;52.956;4.772;2022-12-07T00:24:05;101919.91;;;7.34;100.00
55490;BME280;44029;52.956;4.772;2022-12-07T00:26:36;101912.19;;;7.38;100.00
55490;BME280;44029;52.956;4.772;2022-12-07T00:29:16;101920.97;;;7.33;100.00
55490;BME280;44029;52.956;4.772;2022-12-07T00:31:42;101918.41;;;7.25;100.00
55490;BME280;44029;52.956;4.772;2022-12-07T00:34:12;101908.78;;;7.29;100.00
55490;BME280;44029;52.956;4.772;2022-12-07T00:36:38;101910.72;;;7.35;100.00
55490;BME280;44029;52.956;4.772;2022-12-07T00:39:03;101911.16;;;7.45;100.00
55490;BME280;44029;52.956;4.772;2022-12-07T00:41:29;101913.44;;;7.42;100.00
55490;BME280;44029;52.956;4.772;2022-12-07T00:43:55;101901.47;;;7.36;100.00
55490;BME280;44029;52.956;4.772;2022-12-07T00:46:22;101903.38;;;7.35;100.00
55490;BME280;44029;52.956;4.772;2022-12-07T00:48:48;101903.75;;;7.26;100.00
55490;BME280;44029;52.956;4.772;2022-12-07T00:51:15;101915.47;;;7.26;100.00
55490;BME280;44029;52.956;4.772;2022-12-07T00:53:41;101914.66;;;7.32;100.00
55490;BME280;44029;52.956;4.772;2022-12-07T00:56:20;101923.84;;;7.18;100.00
55490;BME280;44029;52.956;4.772;2022-12-07T00:58:53;101936.13;;;7.07;100.00
55490;BME280;44029;52.956;4.772;2022-12-07T01:01:19;101914.03;;;6.95;100.00
55490;BME280;44029;52.956;4.772;2022-12-07T01:03:44;101905.66;;;6.97;100.00
55490;BME280;44029;52.956;4.772;2022-12-07T01:06:14;101907.81;;;7.02;100.00
55490;BME280;44029;52.956;4.772;2022-12-07T01:08:40;101897.47;;;6.90;100.00
55490;BME280;44029;52.956;4.772;2022-12-07T01:11:07;101894.75;;;6.90;100.00
55490;BME280;44029;52.956;4.772;2022-12-07T01:13:34;101893.84;;;6.83;100.00
55490;BME280;44029;52.956;4.772;2022-12-07T01:16:02;101899.31;;;6.83;100.00
55490;BME280;44029;52.956;4.772;2022-12-07T01:18:28;101898.69;;;6.88;100.00
55490;BME280;44029;52.956;4.772;2022-12-07T01:21:02;101894.13;;;6.95;100.00
55490;BME280;44029;52.956;4.772;2022-12-07T01:23:28;101890.53;;;6.88;100.00
55490;BME280;44029;52.956;4.772;2022-12-07T01:25:57;101883.50;;;7.07;100.00
55490;BME280;44029;52.956;4.772;2022-12-07T01:28:23;101886.28;;;7.13;100.00
55490;BME280;44029;52.956;4.772;2022-12-07T01:31:12;101897.66;;;7.30;100.00
55490;BME280;44029;52.956;4.772;2022-12-07T01:33:40;101897.66;;;7.30;100.00
55490;BME280;44029;52.956;4.772;2022-12-07T01:36:08;101895.44;;;7.41;100.00
55490;BME280;44029;52.956;4.772;2022-12-07T01:38:37;101889.78;;;7.42;100.00
55490;BME280;44029;52.956;4.772;2022-12-07T01:41:03;101881.56;;;7.35;100.00
55490;BME280;44029;52.956;4.772;2022-12-07T01:43:30;101869.59;;;7.30;100.00
55490;BME280;44029;52.956;4.772;2022-12-07T01:45:56;101874.13;;;7.16;100.00
55490;BME280;44029;52.956;4.772;2022-12-07T01:48:29;101881.31;;;7.24;100.00
55490;BME280;44029;52.956;4.772;2022-12-07T01:51:01;101887.78;;;7.23;100.00
55490;BME280;44029;52.956;4.772;2022-12-07T01:53:30;101894.06;;;7.23;100.00
55490;BME280;44029;52.956;4.772;2022-12-07T01:55:57;101886.91;;;7.15;100.00
55490;BME280;44029;52.956;4.772;2022-12-07T01:58:24;101889.81;;;7.07;100.00
55490;BME280;44029;52.956;4.772;2022-12-07T02:00:50;101885.63;;;7.11;100.00
55490;BME280;44029;52.956;4.772;2022-12-07T02:03:35;101882.97;;;7.25;100.00
55490;BME280;44029;52.956;4.772;2022-12-07T02:06:04;101876.06;;;7.29;100.00
55490;BME280;44029;52.956;4.772;2022-12-07T02:08:31;101861.56;;;7.22;100.00
55490;BME280;44029;52.956;4.772;2022-12-07T02:10:56;101864.47;;;7.13;100.00
55490;BME280;44029;52.956;4.772;2022-12-07T02:13:28;101858.44;;;7.18;100.00
55490;BME280;44029;52.956;4.772;2022-12-07T02:16:16;101849.59;;;7.16;100.00
55490;BME280;44029;52.956;4.772;2022-12-07T02:21:57;101854.44;;;7.21;100.00
55490;BME280;44029;52.956;4.772;2022-12-07T02:30:06;101850.94;;;7.33;100.00
55490;BME280;44029;52.956;4.772;2022-12-07T02:32:52;101854.06;;;7.30;100.00
55490;BME280;44029;52.956;4.772;2022-12-07T02:35:50;101861.22;;;7.38;100.00
55490;BME280;44029;52.956;4.772;2022-12-07T02:41:16;101851.88;;;7.12;100.00
55490;BME280;44029;52.956;4.772;2022-12-07T02:43:54;101852.88;;;7.05;100.00
55490;BME280;44029;52.956;4.772;2022-12-07T02:46:23;101850.59;;;7.02;100.00
55490;BME280;44029;52.956;4.772;2022-12-07T02:51:53;101850.06;;;6.85;100.00
55490;BME280;44029;52.956;4.772;2022-12-07T02:54:20;101848.44;;;6.90;100.00
55490;BME280;44029;52.956;4.772;2022-12-07T02:59:30;101853.91;;;6.97;100.00
55490;BME280;44029;52.956;4.772;2022-12-07T03:04:45;101848.31;;;7.05;100.00
55490;BME280;44029;52.956;4.772;2022-12-07T03:10:19;101860.09;;;7.19;100.00
55490;BME280;44029;52.956;4.772;2022-12-07T03:16:00;101872.09;;;6.90;100.00
55490;BME280;44029;52.956;4.772;2022-12-07T03:18:31;101877.34;;;6.91;100.00
55490;BME280;44029;52.956;4.772;2022-12-07T03:21:02;101874.47;;;7.00;100.00
55490;BME280;44029;52.956;4.772;2022-12-07T03:23:32;101877.53;;;6.90;100.00
55490;BME280;44029;52.956;4.772;2022-12-07T03:26:00;101872.75;;;6.64;100.00
55490;BME280;44029;52.956;4.772;2022-12-07T03:28:31;101872.50;;;6.58;100.00
55490;BME280;44029;52.956;4.772;2022-12-07T03:31:05;101855.59;;;6.63;100.00
55490;BME280;44029;52.956;4.772;2022-12-07T03:36:21;101839.38;;;6.55;100.00
55490;BME280;44029;52.956;4.772;2022-12-07T03:41:38;101845.09;;;6.60;100.00
55490;BME280;44029;52.956;4.772;2022-12-07T03:44:04;101834.69;;;6.70;100.00
55490;BME280;44029;52.956;4.772;2022-12-07T03:51:55;101843.31;;;6.81;100.00
55490;BME280;44029;52.956;4.772;2022-12-07T03:54:30;101845.84;;;6.82;100.00
55490;BME280;44029;52.956;4.772;2022-12-07T03:56:58;101841.88;;;6.78;100.00
55490;BME280;44029;52.956;4.772;2022-12-07T03:59:25;101846.91;;;6.81;100.00
55490;BME280;44029;52.956;4.772;2022-12-07T04:01:54;101846.47;;;6.77;100.00
55490;BME280;44029;52.956;4.772;2022-12-07T04:04:21;101838.44;;;6.69;100.00
55490;BME280;44029;52.956;4.772;2022-12-07T04:06:46;101845.16;;;6.73;100.00
55490;BME280;44029;52.956;4.772;2022-12-07T04:09:12;101843.00;;;6.62;100.00
55490;BME280;44029;52.956;4.772;2022-12-07T04:11:39;101848.25;;;6.64;100.00
55490;BME280;44029;52.956;4.772;2022-12-07T04:14:05;101840.97;;;6.71;100.00
55490;BME280;44029;52.956;4.772;2022-12-07T04:16:51;101842.69;;;6.78;100.00
55490;BME280;44029;52.956;4.772;2022-12-07T04:19:18;101832.63;;;6.72;100.00
55490;BME280;44029;52.956;4.772;2022-12-07T04:21:44;101831.16;;;6.76;100.00
55490;BME280;44029;52.956;4.772;2022-12-07T04:24:12;101825.97;;;6.82;100.00
55490;BME280;44029;52.956;4.772;2022-12-07T04:26:37;101827.03;;;6.87;100.00
55490;BME280;44029;52.956;4.772;2022-12-07T04:29:03;101824.25;;;6.74;100.00
55490;BME280;44029;52.956;4.772;2022-12-07T04:31:28;101829.25;;;6.70;100.00
55490;BME280;44029;52.956;4.772;2022-12-07T04:33:53;101840.28;;;6.62;100.00
55490;BME280;44029;52.956;4.772;2022-12-07T04:36:19;101826.66;;;6.62;100.00
55490;BME280;44029;52.956;4.772;2022-12-07T04:38:45;101827.53;;;6.63;100.00
55490;BME280;44029;52.956;4.772;2022-12-07T04:41:11;101817.06;;;6.66;100.00
55490;BME280;44029;52.956;4.772;2022-12-07T04:43:37;101824.03;;;6.75;100.00
55490;BME280;44029;52.956;4.772;2022-12-07T04:46:02;101821.28;;;6.75;100.00
55490;BME280;44029;52.956;4.772;2022-12-07T04:48:28;101814.44;;;6.80;100.00
55490;BME280;44029;52.956;4.772;2022-12-07T04:50:53;101809.19;;;6.85;100.00
55490;BME280;44029;52.956;4.772;2022-12-07T04:53:19;101802.13;;;6.90;100.00
55490;BME280;44029;52.956;4.772;2022-12-07T04:55:45;101807.97;;;6.94;100.00
55490;BME280;44029;52.956;4.772;2022-12-07T04:58:11;101809.25;;;6.91;100.00
55490;BME280;44029;52.956;4.772;2022-12-07T05:00:37;101813.03;;;6.90;100.00
55490;BME280;44029;52.956;4.772;2022-12-07T05:03:02;101809.69;;;6.95;100.00
55490;BME280;44029;52.956;4.772;2022-12-07T05:05:27;101808.84;;;6.94;100.00
55490;BME280;44029;52.956;4.772;2022-12-07T05:07:53;101799.03;;;7.00;100.00
55490;BME280;44029;52.956;4.772;2022-12-07T05:10:18;101798.59;;;7.03;100.00
55490;BME280;44029;52.956;4.772;2022-12-07T05:12:44;101793.00;;;7.11;100.00
55490;BME280;44029;52.956;4.772;2022-12-07T05:15:10;101801.84;;;7.27;100.00
55490;BME280;44029;52.956;4.772;2022-12-07T05:17:36;101802.03;;;7.19;100.00
55490;BME280;44029;52.956;4.772;2022-12-07T05:20:01;101801.19;;;7.18;100.00
55490;BME280;44029;52.956;4.772;2022-12-07T05:22:27;101793.81;;;7.05;100.00
55490;BME280;44029;52.956;4.772;2022-12-07T05:24:54;101790.47;;;7.10;100.00
55490;BME280;44029;52.956;4.772;2022-12-07T05:27:19;101786.13;;;7.22;100.00
55490;BME280;44029;52.956;4.772;2022-12-07T05:29:45;101791.13;;;7.19;100.00
55490;BME280;44029;52.956;4.772;2022-12-07T05:32:10;101786.28;;;7.14;100.00
55490;BME280;44029;52.956;4.772;2022-12-07T05:34:35;101790.25;;;7.11;100.00
55490;BME280;44029;52.956;4.772;2022-12-07T05:37:01;101781.25;;;7.11;100.00
55490;BME280;44029;52.956;4.772;2022-12-07T05:39:26;101782.97;;;7.19;100.00
55490;BME280;44029;52.956;4.772;2022-12-07T05:41:52;101784.25;;;7.29;100.00
55490;BME280;44029;52.956;4.772;2022-12-07T05:44:35;101789.06;;;7.34;100.00
55490;BME280;44029;52.956;4.772;2022-12-07T05:47:01;101801.44;;;7.30;100.00
55490;BME280;44029;52.956;4.772;2022-12-07T05:49:26;101793.81;;;7.05;100.00
55490;BME280;44029;52.956;4.772;2022-12-07T05:51:51;101782.34;;;6.75;100.00
55490;BME280;44029;52.956;4.772;2022-12-07T05:54:17;101788.16;;;6.65;100.00
55490;BME280;44029;52.956;4.772;2022-12-07T05:56:42;101783.53;;;6.59;100.00
55490;BME280;44029;52.956;4.772;2022-12-07T05:59:08;101784.81;;;6.70;100.00
55490;BME280;44029;52.956;4.772;2022-12-07T06:01:56;101785.69;;;6.77;100.00
55490;BME280;44029;52.956;4.772;2022-12-07T06:04:23;101783.84;;;6.84;100.00
55490;BME280;44029;52.956;4.772;2022-12-07T06:06:49;101785.34;;;6.87;100.00
55490;BME280;44029;52.956;4.772;2022-12-07T06:09:14;101785.34;;;6.87;100.00
55490;BME280;44029;52.956;4.772;2022-12-07T06:11:40;101782.44;;;6.95;100.00
55490;BME280;44029;52.956;4.772;2022-12-07T06:14:24;101786.44;;;6.99;100.00
55490;BME280;44029;52.956;4.772;2022-12-07T06:16:49;101791.28;;;7.04;100.00
55490;BME280;44029;52.956;4.772;2022-12-07T06:19:15;101784.16;;;7.03;100.00
55490;BME280;44029;52.956;4.772;2022-12-07T06:21:41;101781.84;;;7.06;100.00
55490;BME280;44029;52.956;4.772;2022-12-07T06:24:07;101778.28;;;7.06;100.00
55490;BME280;44029;52.956;4.772;2022-12-07T06:26:32;101793.16;;;7.03;100.00
55490;BME280;44029;52.956;4.772;2022-12-07T06:28:58;101784.13;;;6.96;100.00
55490;BME280;44029;52.956;4.772;2022-12-07T06:31:23;101786.81;;;6.89;100.00
55490;BME280;44029;52.956;4.772;2022-12-07T06:33:48;101787.25;;;6.93;100.00
55490;BME280;44029;52.956;4.772;2022-12-07T06:36:14;101794.78;;;6.91;100.00
55490;BME280;44029;52.956;4.772;2022-12-07T06:38:39;101794.38;;;6.94;100.00
55490;BME280;44029;52.956;4.772;2022-12-07T06:41:05;101784.56;;;7.06;100.00
55490;BME280;44029;52.956;4.772;2022-12-07T06:43:31;101793.00;;;7.11;100.00
55490;BME280;44029;52.956;4.772;2022-12-07T06:45:57;101775.38;;;7.07;100.00
55490;BME280;44029;52.956;4.772;2022-12-07T06:48:22;101788.38;;;7.12;100.00
55490;BME280;44029;52.956;4.772;2022-12-07T06:50:48;101779.38;;;7.11;100.00
55490;BME280;44029;52.956;4.772;2022-12-07T06:53:14;101778.31;;;7.12;100.00
55490;BME280;44029;52.956;4.772;2022-12-07T06:55:39;101779.53;;;7.03;100.00
55490;BME280;44029;52.956;4.772;2022-12-07T06:58:04;101790.03;;;7.00;100.00
55490;BME280;44029;52.956;4.772;2022-12-07T07:00:30;101783.94;;;7.04;100.00
55490;BME280;44029;52.956;4.772;2022-12-07T07:02:55;101810.94;;;6.92;100.00
55490;BME280;44029;52.956;4.772;2022-12-07T07:05:21;101803.28;;;6.74;100.00
55490;BME280;44029;52.956;4.772;2022-12-07T07:07:50;101807.22;;;6.65;100.00
55490;BME280;44029;52.956;4.772;2022-12-07T07:10:15;101806.91;;;6.47;100.00
55490;BME280;44029;52.956;4.772;2022-12-07T07:12:40;101816.34;;;6.51;100.00
55490;BME280;44029;52.956;4.772;2022-12-07T07:15:06;101812.53;;;6.45;100.00
55490;BME280;44029;52.956;4.772;2022-12-07T07:17:32;101822.97;;;6.42;100.00
55490;BME280;44029;52.956;4.772;2022-12-07T07:19:57;101811.88;;;6.43;100.00
55490;BME280;44029;52.956;4.772;2022-12-07T07:22:22;101820.81;;;6.30;100.00
55490;BME280;44029;52.956;4.772;2022-12-07T07:24:48;101820.75;;;6.24;100.00
55490;BME280;44029;52.956;4.772;2022-12-07T07:27:13;101810.56;;;6.32;100.00
55490;BME280;44029;52.956;4.772;2022-12-07T07:29:38;101814.97;;;6.33;100.00
55490;BME280;44029;52.956;4.772;2022-12-07T07:32:04;101803.66;;;6.36;100.00
55490;BME280;44029;52.956;4.772;2022-12-07T07:34:29;101804.34;;;6.38;100.00
55490;BME280;44029;52.956;4.772;2022-12-07T07:36:55;101794.22;;;6.32;100.00
55490;BME280;44029;52.956;4.772;2022-12-07T07:39:20;101793.00;;;6.35;100.00
55490;BME280;44029;52.956;4.772;2022-12-07T07:41:46;101788.19;;;6.37;100.00
55490;BME280;44029;52.956;4.772;2022-12-07T07:44:11;101793.47;;;6.45;100.00
55490;BME280;44029;52.956;4.772;2022-12-07T07:46:37;101791.44;;;6.54;100.00
55490;BME280;44029;52.956;4.772;2022-12-07T07:49:02;101785.44;;;6.65;100.00
55490;BME280;44029;52.956;4.772;2022-12-07T07:51:28;101781.47;;;6.68;100.00
55490;BME280;44029;52.956;4.772;2022-12-07T07:53:53;101787.78;;;6.75;100.00
55490;BME280;44029;52.956;4.772;2022-12-07T07:56:19;101790.31;;;6.76;100.00
55490;BME280;44029;52.956;4.772;2022-12-07T07:58:44;101800.19;;;6.77;100.00
55490;BME280;44029;52.956;4.772;2022-12-07T08:01:09;101811.25;;;6.76;100.00
55490;BME280;44029;52.956;4.772;2022-12-07T08:03:35;101819.94;;;6.58;100.00
55490;BME280;44029;52.956;4.772;2022-12-07T08:06:04;101812.41;;;6.53;100.00
55490;BME280;44029;52.956;4.772;2022-12-07T08:08:29;101815.94;;;6.54;100.00
55490;BME280;44029;52.956;4.772;2022-12-07T08:10:55;101812.97;;;6.49;100.00
55490;BME280;44029;52.956;4.772;2022-12-07T08:13:20;101815.06;;;6.47;100.00
55490;BME280;44029;52.956;4.772;2022-12-07T08:15:47;101820.88;;;6.44;100.00
55490;BME280;44029;52.956;4.772;2022-12-07T08:18:13;101821.31;;;6.41;100.00
55490;BME280;44029;52.956;4.772;2022-12-07T08:20:40;101823.38;;;6.38;100.00
55490;BME280;44029;52.956;4.772;2022-12-07T08:23:07;101816.69;;;6.41;100.00
55490;BME280;44029;52.956;4.772;2022-12-07T08:25:34;101814.81;;;6.42;100.00
55490;BME280;44029;52.956;4.772;2022-12-07T08:28:00;101819.97;;;6.30;100.00
55490;BME280;44029;52.956;4.772;2022-12-07T08:30:27;101819.25;;;6.21;100.00
55490;BME280;44029;52.956;4.772;2022-12-07T08:32:52;101819.34;;;6.34;100.00
55490;BME280;44029;52.956;4.772;2022-12-07T08:35:18;101811.31;;;6.48;100.00
55490;BME280;44029;52.956;4.772;2022-12-07T08:37:43;101815.69;;;6.49;100.00
55490;BME280;44029;52.956;4.772;2022-12-07T08:40:10;101813.06;;;6.62;100.00
55490;BME280;44029;52.956;4.772;2022-12-07T08:42:36;101815.94;;;6.54;100.00
55490;BME280;44029;52.956;4.772;2022-12-07T08:45:11;101812.66;;;6.65;100.00
55490;BME280;44029;52.956;4.772;2022-12-07T08:47:39;101817.91;;;6.67;100.00
55490;BME280;44029;52.956;4.772;2022-12-07T08:50:07;101812.50;;;6.73;100.00
55490;BME280;44029;52.956;4.772;2022-12-07T08:52:35;101822.41;;;6.81;100.00
55490;BME280;44029;52.956;4.772;2022-12-07T08:55:02;101819.88;;;6.80;100.00
55490;BME280;44029;52.956;4.772;2022-12-07T08:57:29;101821.84;;;6.92;100.00
55490;BME280;44029;52.956;4.772;2022-12-07T08:59:55;101827.91;;;6.94;100.00
55490;BME280;44029;52.956;4.772;2022-12-07T09:02:20;101826.66;;;6.90;100.00
55490;BME280;44029;52.956;4.772;2022-12-07T09:04:46;101810.78;;;6.66;100.00
55490;BME280;44029;52.956;4.772;2022-12-07T09:07:11;101815.38;;;6.65;100.00
55490;BME280;44029;52.956;4.772;2022-12-07T09:09:37;101811.22;;;6.69;100.00
55490;BME280;44029;52.956;4.772;2022-12-07T09:12:02;101815.38;;;6.65;100.00
55490;BME280;44029;52.956;4.772;2022-12-07T09:14:28;101804.31;;;6.73;100.00
55490;BME280;44029;52.956;4.772;2022-12-07T09:16:53;101812.97;;;6.84;100.00
55490;BME280;44029;52.956;4.772;2022-12-07T09:19:19;101814.44;;;6.80;100.00
55490;BME280;44029;52.956;4.772;2022-12-07T09:21:44;101820.03;;;7.13;100.00
55490;BME280;44029;52.956;4.772;2022-12-07T09:24:09;101827.38;;;7.19;100.00
55490;BME280;44029;52.956;4.772;2022-12-07T09:26:36;101822.81;;;7.26;100.00
55490;BME280;44029;52.956;4.772;2022-12-07T09:29:03;101827.00;;;7.22;100.00
55490;BME280;44029;52.956;4.772;2022-12-07T09:31:28;101826.75;;;7.17;100.00
55490;BME280;44029;52.956;4.772;2022-12-07T09:33:55;101819.88;;;7.28;100.00
55490;BME280;44029;52.956;4.772;2022-12-07T09:36:21;101814.00;;;7.31;100.00
55490;BME280;44029;52.956;4.772;2022-12-07T09:38:48;101818.03;;;7.42;100.00
55490;BME280;44029;52.956;4.772;2022-12-07T09:41:13;101823.22;;;7.23;100.00
55490;BME280;44029;52.956;4.772;2022-12-07T09:43:40;101815.25;;;7.28;100.00
55490;BME280;44029;52.956;4.772;2022-12-07T09:46:11;101822.03;;;7.39;100.00
55490;BME280;44029;52.956;4.772;2022-12-07T09:48:39;101820.13;;;7.33;100.00
55490;BME280;44029;52.956;4.772;2022-12-07T09:51:22;101817.84;;;7.50;100.00
55490;BME280;44029;52.956;4.772;2022-12-07T09:53:49;101816.00;;;7.64;100.00
55490;BME280;44029;52.956;4.772;2022-12-07T09:56:16;101813.72;;;7.81;100.00
55490;BME280;44029;52.956;4.772;2022-12-07T09:58:42;101817.94;;;7.97;100.00
55490;BME280;44029;52.956;4.772;2022-12-07T10:03:40;101822.53;;;7.76;100.00
55490;BME280;44029;52.956;4.772;2022-12-07T10:06:06;101831.47;;;7.43;100.00
55490;BME280;44029;52.956;4.772;2022-12-07T10:08:33;101821.69;;;7.14;100.00
55490;BME280;44029;52.956;4.772;2022-12-07T10:11:01;101828.25;;;6.78;100.00
55490;BME280;44029;52.956;4.772;2022-12-07T10:16:01;101809.63;;;6.47;100.00
55490;BME280;44029;52.956;4.772;2022-12-07T10:23:40;101799.25;;;7.05;100.00
55490;BME280;44029;52.956;4.772;2022-12-07T10:26:21;101798.03;;;7.21;100.00
55490;BME280;44029;52.956;4.772;2022-12-07T10:28:50;101790.94;;;7.27;100.00
55490;BME280;44029;52.956;4.772;2022-12-07T10:31:21;101793.25;;;7.36;100.00
55490;BME280;44029;52.956;4.772;2022-12-07T10:33:58;101777.53;;;7.32;100.00
55490;BME280;44029;52.956;4.772;2022-12-07T10:36:25;101781.72;;;7.34;100.00
55490;BME280;44029;52.956;4.772;2022-12-07T10:38:58;101773.41;;;7.63;100.00
55490;BME280;44029;52.956;4.772;2022-12-07T10:41:24;101771.09;;;7.60;100.00
55490;BME280;44029;52.956;4.772;2022-12-07T10:43:55;101768.81;;;7.77;100.00
55490;BME280;44029;52.956;4.772;2022-12-07T10:52:00;101746.56;;;8.13;100.00
55490;BME280;44029;52.956;4.772;2022-12-07T10:57:22;101745.72;;;8.06;100.00
55490;BME280;44029;52.956;4.772;2022-12-07T11:00:18;101736.69;;;7.99;100.00
55490;BME280;44029;52.956;4.772;2022-12-07T11:05:39;101724.75;;;8.00;100.00
55490;BME280;44029;52.956;4.772;2022-12-07T11:13:25;101777.97;;;6.11;100.00
55490;BME280;44029;52.956;4.772;2022-12-07T11:18:29;101781.72;;;5.88;100.00
55490;BME280;44029;52.956;4.772;2022-12-07T11:32:53;101762.78;;;6.58;100.00
55490;BME280;44029;52.956;4.772;2022-12-07T11:38:20;101755.41;;;6.93;100.00
55490;BME280;44029;52.956;4.772;2022-12-07T11:40:50;101741.38;;;7.03;100.00
55490;BME280;44029;52.956;4.772;2022-12-07T11:43:24;101740.38;;;7.18;100.00
55490;BME280;44029;52.956;4.772;2022-12-07T11:46:08;101738.72;;;7.16;100.00
55490;BME280;44029;52.956;4.772;2022-12-07T11:48:47;101725.97;;;7.24;100.00
55490;BME280;44029;52.956;4.772;2022-12-07T11:51:16;101724.94;;;7.31;100.00
55490;BME280;44029;52.956;4.772;2022-12-07T11:54:32;101723.44;;;7.29;100.00
55490;BME280;44029;52.956;4.772;2022-12-07T11:56:38;101712.94;;;7.19;100.00
55490;BME280;44029;52.956;4.772;2022-12-07T11:59:17;101704.38;;;7.49;100.00
55490;BME280;44029;52.956;4.772;2022-12-07T12:01:52;101698.72;;;7.50;100.00
55490;BME280;44029;52.956;4.772;2022-12-07T12:07:24;101689.06;;;7.54;100.00
55490;BME280;44029;52.956;4.772;2022-12-07T12:09:58;101695.59;;;7.67;100.00
55490;BME280;44029;52.956;4.772;2022-12-07T12:20:58;101718.31;;;6.99;100.00
55490;BME280;44029;52.956;4.772;2022-12-07T12:26:08;101733.28;;;6.27;100.00
55490;BME280;44029;52.956;4.772;2022-12-07T12:28:42;101714.16;;;6.13;100.00
55490;BME280;44029;52.956;4.772;2022-12-07T12:33:58;101713.50;;;6.11;100.00
55490;BME280;44029;52.956;4.772;2022-12-07T12:44:03;101689.22;;;6.10;100.00
55490;BME280;44029;52.956;4.772;2022-12-07T12:46:53;101685.13;;;6.27;100.00
55490;BME280;44029;52.956;4.772;2022-12-07T12:51:46;101693.38;;;6.41;100.00
55490;BME280;44029;52.956;4.772;2022-12-07T12:54:20;101681.63;;;6.33;100.00
55490;BME280;44029;52.956;4.772;2022-12-07T12:59:35;101656.94;;;6.42;100.00
55490;BME280;44029;52.956;4.772;2022-12-07T13:02:20;101658.69;;;6.56;100.00
55490;BME280;44029;52.956;4.772;2022-12-07T13:04:58;101651.34;;;6.56;100.00
55490;BME280;44029;52.956;4.772;2022-12-07T13:13:25;101631.34;;;6.91;100.00
55490;BME280;44029;52.956;4.772;2022-12-07T13:26:21;101608.75;;;7.10;100.00
55490;BME280;44029;52.956;4.772;2022-12-07T13:28:50;101606.88;;;7.24;100.00
55490;BME280;44029;52.956;4.772;2022-12-07T13:31:35;101601.41;;;7.31;100.00
55490;BME280;44029;52.956;4.772;2022-12-07T13:34:03;101597.25;;;7.35;100.00
55490;BME280;44029;52.956;4.772;2022-12-07T13:36:39;101604.56;;;7.48;100.00
55490;BME280;44029;52.956;4.772;2022-12-07T13:41:41;101602.69;;;7.02;100.00
55490;BME280;44029;52.956;4.772;2022-12-07T13:44:13;101605.53;;;6.73;100.00
55490;BME280;44029;52.956;4.772;2022-12-07T13:49:28;101587.50;;;6.59;100.00
55490;BME280;44029;52.956;4.772;2022-12-07T13:51:55;101580.59;;;6.50;100.00
55490;BME280;44029;52.956;4.772;2022-12-07T13:54:31;101568.88;;;6.63;100.00
55490;BME280;44029;52.956;4.772;2022-12-07T13:56:57;101571.84;;;6.74;100.00
55490;BME280;44029;52.956;4.772;2022-12-07T13:59:23;101572.00;;;6.66;100.00
55490;BME280;44029;52.956;4.772;2022-12-07T14:01:50;101563.03;;;6.72;100.00
55490;BME280;44029;52.956;4.772;2022-12-07T14:04:34;101573.94;;;6.86;100.00
55490;BME280;44029;52.956;4.772;2022-12-07T14:07:01;101565.56;;;6.94;100.00
55490;BME280;44029;52.956;4.772;2022-12-07T14:12:21;101566.59;;;6.80;100.00
55490;BME280;44029;52.956;4.772;2022-12-07T14:14:47;101563.88;;;6.86;100.00
55490;BME280;44029;52.956;4.772;2022-12-07T14:17:21;101556.56;;;6.93;100.00
55490;BME280;44029;52.956;4.772;2022-12-07T14:20:01;101562.63;;;6.89;100.00
55490;BME280;44029;52.956;4.772;2022-12-07T14:25:25;101559.91;;;7.02;100.00
55490;BME280;44029;52.956;4.772;2022-12-07T14:27:53;101560.53;;;7.04;100.00
55490;BME280;44029;52.956;4.772;2022-12-07T14:30:21;101551.53;;;6.97;100.00
55490;BME280;44029;52.956;4.772;2022-12-07T14:32:52;101558.25;;;7.14;100.00
55490;BME280;44029;52.956;4.772;2022-12-07T14:35:18;101557.81;;;7.18;100.00
55490;BME280;44029;52.956;4.772;2022-12-07T14:37:46;101548.19;;;7.15;100.00
55490;BME280;44029;52.956;4.772;2022-12-07T14:40:23;101554.88;;;7.19;100.00
55490;BME280;44029;52.956;4.772;2022-12-07T14:42:51;101560.13;;;7.21;100.00
55490;BME280;44029;52.956;4.772;2022-12-07T14:45:21;101552.38;;;7.18;100.00
55490;BME280;44029;52.956;4.772;2022-12-07T14:47:46;101547.34;;;7.14;100.00
55490;BME280;44029;52.956;4.772;2022-12-07T14:50:18;101547.75;;;7.25;100.00
55490;BME280;44029;52.956;4.772;2022-12-07T14:52:47;101541.91;;;7.28;100.00
55490;BME280;44029;52.956;4.772;2022-12-07T14:55:25;101543.56;;;7.35;100.00
55490;BME280;44029;52.956;4.772;2022-12-07T14:57:51;101540.00;;;7.28;100.00
55490;BME280;44029;52.956;4.772;2022-12-07T15:00:17;101547.97;;;7.16;100.00
55490;BME280;44029;52.956;4.772;2022-12-07T15:02:46;101549.44;;;7.12;100.00
55490;BME280;44029;52.956;4.772;2022-12-07T15:05:12;101541.91;;;6.81;100.00
55490;BME280;44029;52.956;4.772;2022-12-07T15:07:38;101544.56;;;6.48;100.00
55490;BME280;44029;52.956;4.772;2022-12-07T15:10:05;101546.59;;;6.32;100.00
55490;BME280;44029;52.956;4.772;2022-12-07T15:12:31;101538.63;;;6.31;100.00
55490;BME280;44029;52.956;4.772;2022-12-07T15:14:56;101536.97;;;6.30;100.00
55490;BME280;44029;52.956;4.772;2022-12-07T15:17:21;101535.53;;;6.41;100.00